createdAt,value
2022-09-15T00:00:31.575Z,8.37
2022-09-15T00:02:58.194Z,5.80
2022-09-15T00:05:24.887Z,3.37
2022-09-15T00:07:51.641Z,5.90
2022-09-15T00:10:18.599Z,2.03
2022-09-15T00:12:45.195Z,2.07
2022-09-15T00:15:14.656Z,3.40
2022-09-15T00:17:42.739Z,3.07
2022-09-15T00:20:10.882Z,2.70
2022-09-15T00:22:38.025Z,1.93
2022-09-15T00:25:05.451Z,2.33
2022-09-15T00:27:33.505Z,2.57
2022-09-15T00:30:00.121Z,3.40
2022-09-15T00:32:27.257Z,3.27
2022-09-15T00:34:53.858Z,6.63
2022-09-15T00:37:20.640Z,3.70
2022-09-15T00:39:47.663Z,3.53
2022-09-15T00:42:19.687Z,6.07
2022-09-15T00:44:56.433Z,4.33
2022-09-15T00:47:28.530Z,2.40
2022-09-15T00:50:01.205Z,5.03
2022-09-15T00:52:36.879Z,2.70
2022-09-15T00:55:12.171Z,6.00
2022-09-15T00:57:43.894Z,3.10
2022-09-15T01:00:13.904Z,1.97
2022-09-15T01:02:43.132Z,2.60
2022-09-15T01:05:15.999Z,2.50
2022-09-15T01:08:05.657Z,2.43
2022-09-15T01:10:37.837Z,2.40
2022-09-15T01:13:10.499Z,3.47
2022-09-15T01:15:59.111Z,2.37
2022-09-15T01:18:51.034Z,2.07
2022-09-15T01:21:49.737Z,2.20
2022-09-15T01:24:41.962Z,2.07
2022-09-15T01:27:42.036Z,2.93
2022-09-15T01:30:12.515Z,2.40
2022-09-15T01:33:20.749Z,2.77
2022-09-15T01:36:03.055Z,3.23
2022-09-15T01:38:43.903Z,3.63
2022-09-15T01:41:30.950Z,3.57
2022-09-15T01:44:18.457Z,5.03
2022-09-15T01:46:54.305Z,2.83
2022-09-15T01:49:30.694Z,2.47
2022-09-15T01:51:57.278Z,4.60
2022-09-15T01:54:30.879Z,3.27
2022-09-15T01:56:57.982Z,4.10
2022-09-15T01:59:24.927Z,3.47
2022-09-15T02:01:59.442Z,5.57
2022-09-15T02:04:46.920Z,2.37
2022-09-15T02:07:25.425Z,3.07
2022-09-15T02:10:01.016Z,3.47
2022-09-15T02:12:52.121Z,2.57
2022-09-15T02:15:29.058Z,6.30
2022-09-15T02:17:59.097Z,3.63
2022-09-15T02:20:38.799Z,4.23
2022-09-15T02:23:12.735Z,2.47
2022-09-15T02:25:47.008Z,2.73
2022-09-15T02:28:15.992Z,3.70
2022-09-15T02:30:46.570Z,5.00
2022-09-15T02:33:17.178Z,2.87
2022-09-15T02:35:44.201Z,5.83
2022-09-15T02:38:12.197Z,2.60
2022-09-15T02:40:43.607Z,3.97
2022-09-15T02:43:16.878Z,2.20
2022-09-15T02:45:43.881Z,3.03
2022-09-15T02:48:10.465Z,3.17
2022-09-15T02:50:37.895Z,3.87
2022-09-15T02:53:05.108Z,3.83
2022-09-15T02:55:31.685Z,4.87
2022-09-15T02:57:59.058Z,3.97
2022-09-15T03:00:28.220Z,2.97
2022-09-15T03:02:55.545Z,7.23
2022-09-15T03:05:25.999Z,2.27
2022-09-15T03:07:53.444Z,2.43
2022-09-15T03:10:20.947Z,2.87
2022-09-15T03:12:50.154Z,3.17
2022-09-15T03:15:19.433Z,3.83
2022-09-15T03:17:47.608Z,4.87
2022-09-15T03:20:18.433Z,4.97
2022-09-15T03:22:45.042Z,2.60
2022-09-15T03:25:12.120Z,3.83
2022-09-15T03:27:38.796Z,4.00
2022-09-15T03:30:07.091Z,3.73
2022-09-15T03:32:34.542Z,2.87
2022-09-15T03:35:02.312Z,2.40
2022-09-15T03:37:28.976Z,2.77
2022-09-15T03:39:55.995Z,3.30
2022-09-15T03:42:22.664Z,3.57
2022-09-15T03:44:49.246Z,2.83
2022-09-15T03:47:15.879Z,4.03
2022-09-15T03:49:42.482Z,3.20
2022-09-15T03:52:09.090Z,4.57
2022-09-15T03:54:35.700Z,2.80
2022-09-15T03:57:03.408Z,3.87
2022-09-15T03:59:30.024Z,2.80
2022-09-15T04:01:56.716Z,2.37
2022-09-15T04:04:23.413Z,3.23
2022-09-15T04:06:50.021Z,3.37
2022-09-15T04:09:16.641Z,3.37
2022-09-15T04:11:43.329Z,5.23
2022-09-15T04:14:09.963Z,1.83
2022-09-15T04:16:36.595Z,5.67
2022-09-15T04:19:03.751Z,2.60
2022-09-15T04:21:31.604Z,2.40
2022-09-15T04:23:58.221Z,2.43
2022-09-15T04:26:29.896Z,1.73
2022-09-15T04:29:00.436Z,2.13
2022-09-15T04:31:29.977Z,5.90
2022-09-15T04:33:57.126Z,5.07
2022-09-15T04:36:26.044Z,1.90
2022-09-15T04:38:53.155Z,2.10
2022-09-15T04:41:20.789Z,2.20
2022-09-15T04:43:47.522Z,3.17
2022-09-15T04:46:15.135Z,3.43
2022-09-15T04:48:42.646Z,2.27
2022-09-15T04:51:13.286Z,2.60
2022-09-15T04:53:40.059Z,3.00
2022-09-15T04:56:15.505Z,2.37
2022-09-15T04:58:51.366Z,3.10
2022-09-15T05:01:21.766Z,3.40
2022-09-15T05:03:49.020Z,2.50
2022-09-15T05:06:18.537Z,2.60
2022-09-15T05:08:49.156Z,3.90
2022-09-15T05:11:16.165Z,2.80
2022-09-15T05:13:43.122Z,4.80
2022-09-15T05:16:12.185Z,2.20
2022-09-15T05:18:40.296Z,2.97
2022-09-15T05:21:08.571Z,3.27
2022-09-15T05:23:36.829Z,4.23
2022-09-15T05:26:07.126Z,2.40
2022-09-15T05:28:36.100Z,3.03
2022-09-15T05:31:18.128Z,2.57
2022-09-15T05:33:46.002Z,2.67
2022-09-15T05:36:15.029Z,3.53
2022-09-15T05:38:42.359Z,3.27
2022-09-15T05:41:12.343Z,3.53
2022-09-15T05:43:39.824Z,2.30
2022-09-15T05:46:07.628Z,3.37
2022-09-15T05:48:34.882Z,2.57
2022-09-15T05:51:02.001Z,2.47
2022-09-15T05:53:30.921Z,5.00
2022-09-15T05:55:58.984Z,2.20
2022-09-15T05:58:26.314Z,3.90
2022-09-15T06:00:53.563Z,4.00
2022-09-15T06:03:20.920Z,1.80
2022-09-15T06:05:48.034Z,4.67
2022-09-15T06:08:14.620Z,4.40
2022-09-15T06:10:41.344Z,4.93
2022-09-15T06:13:08.090Z,8.17
2022-09-15T06:15:34.799Z,5.23
2022-09-15T06:18:01.363Z,3.03
2022-09-15T06:20:27.991Z,3.27
2022-09-15T06:22:56.040Z,2.70
2022-09-15T06:25:22.812Z,3.70
2022-09-15T06:27:50.551Z,3.97
2022-09-15T06:30:17.863Z,3.10
2022-09-15T06:32:48.026Z,6.27
2022-09-15T06:35:15.279Z,3.93
2022-09-15T06:37:41.868Z,4.83
2022-09-15T06:40:09.002Z,3.17
2022-09-15T06:42:35.641Z,3.60
2022-09-15T06:45:02.303Z,3.70
2022-09-15T06:47:33.783Z,3.97
2022-09-15T06:52:32.732Z,3.43
2022-09-15T06:55:00.015Z,3.80
2022-09-15T06:57:26.739Z,4.13
2022-09-15T06:59:53.653Z,3.27
2022-09-15T07:02:20.246Z,3.40
2022-09-15T07:04:46.909Z,2.67
2022-09-15T07:07:13.560Z,1.20
2022-09-15T07:09:41.406Z,1.20
2022-09-15T07:12:08.607Z,0.83
2022-09-15T07:14:35.175Z,0.97
2022-09-15T07:17:01.925Z,0.60
2022-09-15T07:19:28.601Z,0.80
2022-09-15T07:21:55.209Z,0.70
2022-09-15T07:24:21.777Z,0.83
2022-09-15T07:26:48.403Z,0.60
2022-09-15T07:29:14.998Z,0.50
2022-09-15T07:31:41.698Z,1.53
2022-09-15T07:34:08.374Z,0.97
2022-09-15T07:36:35.593Z,1.70
2022-09-15T07:39:04.464Z,0.63
2022-09-15T07:41:32.293Z,1.27
2022-09-15T07:44:00.302Z,3.43
2022-09-15T07:46:30.187Z,0.70
2022-09-15T07:48:56.860Z,0.80
2022-09-15T07:51:24.723Z,1.00
2022-09-15T07:53:52.561Z,0.57
2022-09-15T07:56:20.412Z,2.97
2022-09-15T07:58:48.137Z,2.00
2022-09-15T08:01:16.035Z,0.40
2022-09-15T08:03:45.210Z,0.57
2022-09-15T08:06:13.116Z,0.40
2022-09-15T08:08:41.186Z,0.50
2022-09-15T08:11:09.659Z,0.40
2022-09-15T08:13:36.876Z,0.40
2022-09-15T08:16:08.840Z,1.70
2022-09-15T08:18:36.288Z,0.50
2022-09-15T08:21:07.537Z,1.33
2022-09-15T08:23:34.166Z,0.53
2022-09-15T08:26:01.381Z,0.50
2022-09-15T08:28:28.354Z,0.40
2022-09-15T08:31:06.667Z,0.40
2022-09-15T08:33:33.580Z,0.50
2022-09-15T08:36:03.330Z,0.60
2022-09-15T08:38:30.000Z,0.40
2022-09-15T08:41:03.300Z,1.30
2022-09-15T08:43:36.899Z,0.50
2022-09-15T08:46:07.322Z,0.30
2022-09-15T08:48:42.367Z,0.57
2022-09-15T08:51:23.547Z,0.73
2022-09-15T08:54:00.135Z,0.53
2022-09-15T08:56:28.884Z,1.13
2022-09-15T08:58:55.510Z,0.40
2022-09-15T09:01:22.074Z,0.67
2022-09-15T09:03:54.589Z,0.57
2022-09-15T09:06:34.947Z,0.53
2022-09-15T09:09:37.669Z,0.47
2022-09-15T09:12:23.675Z,0.50
2022-09-15T09:15:18.915Z,0.30
2022-09-15T09:18:03.944Z,0.50
2022-09-15T09:20:55.282Z,1.80
2022-09-15T09:23:26.193Z,0.70
2022-09-15T09:25:53.032Z,0.50
2022-09-15T09:28:36.890Z,2.33
2022-09-15T09:31:07.798Z,1.90
2022-09-15T09:33:50.507Z,0.60
2022-09-15T09:36:17.586Z,0.60
2022-09-15T09:38:46.896Z,1.00
2022-09-15T09:41:19.495Z,0.70
2022-09-15T09:43:48.636Z,0.60
2022-09-15T09:46:18.207Z,2.20
2022-09-15T09:49:05.264Z,0.40
2022-09-15T09:51:33.518Z,1.07
2022-09-15T09:54:12.644Z,2.20
2022-09-15T09:56:40.258Z,0.50
2022-09-15T09:59:42.873Z,0.60
2022-09-15T10:02:12.571Z,0.60
2022-09-15T10:04:44.090Z,0.53
2022-09-15T10:07:12.090Z,0.93
2022-09-15T10:09:39.194Z,0.57
2022-09-15T10:12:07.573Z,1.40
2022-09-15T10:14:42.158Z,0.53
2022-09-15T10:17:12.483Z,1.00
2022-09-15T10:19:57.779Z,0.83
2022-09-15T10:22:30.253Z,3.17
2022-09-15T10:24:58.578Z,1.02
2022-09-15T10:27:36.296Z,0.80
2022-09-15T10:30:14.800Z,4.07
2022-09-15T10:32:43.146Z,1.00
2022-09-15T10:35:18.680Z,1.97
2022-09-15T10:38:12.948Z,1.17
2022-09-15T10:40:52.217Z,1.43
2022-09-15T10:43:41.872Z,3.00
2022-09-15T10:46:24.102Z,1.90
2022-09-15T10:49:20.211Z,1.93
2022-09-15T10:52:11.138Z,2.57
2022-09-15T10:54:55.807Z,1.60
2022-09-15T10:57:42.693Z,3.53
2022-09-15T11:00:20.984Z,2.30
2022-09-15T11:03:16.662Z,2.40
2022-09-15T11:06:13.895Z,3.10
2022-09-15T11:08:40.499Z,3.43
2022-09-15T11:11:25.141Z,2.60
2022-09-15T11:14:17.530Z,2.97
2022-09-15T11:17:03.142Z,3.00
2022-09-15T11:19:56.826Z,3.20
2022-09-15T11:22:49.308Z,3.63
2022-09-15T11:25:32.255Z,3.43
2022-09-15T11:28:21.352Z,3.40
2022-09-15T11:31:01.343Z,2.80
2022-09-15T11:33:53.690Z,3.30
2022-09-15T11:36:28.264Z,3.47
2022-09-15T11:39:16.267Z,3.17
2022-09-15T11:42:04.697Z,2.60
2022-09-15T11:44:39.205Z,2.77
2022-09-15T11:47:24.120Z,2.70
2022-09-15T11:50:00.522Z,2.73
2022-09-15T11:52:58.595Z,3.17
2022-09-15T11:55:50.763Z,3.40
2022-09-15T11:58:45.139Z,4.43
2022-09-15T12:01:11.671Z,3.23
2022-09-15T12:03:59.573Z,3.33
2022-09-15T12:06:40.942Z,3.00
2022-09-15T12:09:16.269Z,11.60
2022-09-15T12:11:46.047Z,2.93
2022-09-15T12:14:38.705Z,2.03
2022-09-15T12:17:08.070Z,1.70
2022-09-15T12:19:42.134Z,2.33
2022-09-15T12:22:11.772Z,4.07
2022-09-15T12:24:53.422Z,4.53
2022-09-15T12:27:21.344Z,2.20
2022-09-15T12:29:51.005Z,2.97
2022-09-15T12:32:29.960Z,2.10
2022-09-15T12:35:05.106Z,3.87
2022-09-15T12:37:37.272Z,2.03
2022-09-15T12:40:07.886Z,3.70
2022-09-15T12:42:36.000Z,3.47
2022-09-15T12:45:20.855Z,15.20
2022-09-15T12:47:55.010Z,7.83
2022-09-15T12:50:29.765Z,5.00
2022-09-15T12:52:58.599Z,11.57
2022-09-15T12:55:29.517Z,6.27
2022-09-15T12:57:58.597Z,7.30
2022-09-15T13:00:35.311Z,5.93
2022-09-15T13:03:03.480Z,7.97
2022-09-15T13:05:42.387Z,3.73
2022-09-15T13:08:33.467Z,3.40
2022-09-15T13:11:04.751Z,4.90
2022-09-15T13:13:45.255Z,3.97
2022-09-15T13:16:40.275Z,5.30
2022-09-15T13:19:41.310Z,3.57
2022-09-15T13:22:29.947Z,4.63
2022-09-15T13:25:03.646Z,4.17
2022-09-15T13:27:48.061Z,4.23
2022-09-15T13:30:38.898Z,2.90
2022-09-15T13:40:27.326Z,1.93
2022-09-15T13:43:15.500Z,2.80
2022-09-15T13:45:42.159Z,2.87
2022-09-15T13:48:33.222Z,3.80
2022-09-15T13:51:03.139Z,4.67
2022-09-15T13:53:52.739Z,4.73
2022-09-15T13:56:35.597Z,1.70
2022-09-15T13:59:13.236Z,2.23
2022-09-15T14:01:42.110Z,2.57
2022-09-15T14:04:14.798Z,5.07
2022-09-15T14:06:45.439Z,2.13
2022-09-15T14:09:28.009Z,4.23
2022-09-15T14:11:59.247Z,6.77
2022-09-15T14:15:05.534Z,2.77
2022-09-15T14:17:34.116Z,2.73
2022-09-15T14:20:01.247Z,2.03
2022-09-15T14:22:31.235Z,1.77
2022-09-15T14:25:14.089Z,4.10
2022-09-15T14:27:45.649Z,2.00
2022-09-15T14:30:22.008Z,3.37
2022-09-15T14:32:52.812Z,3.20
2022-09-15T14:35:24.161Z,1.90
2022-09-15T14:37:55.592Z,3.80
2022-09-15T14:40:27.408Z,2.23
2022-09-15T14:42:54.074Z,3.33
2022-09-15T14:48:16.490Z,3.20
2022-09-15T14:50:46.678Z,2.50
2022-09-15T14:53:28.738Z,3.63
2022-09-15T14:56:08.331Z,3.80
2022-09-15T14:58:45.139Z,6.13
2022-09-15T15:04:31.499Z,3.77
2022-09-15T15:07:22.665Z,4.13
2022-09-15T15:09:56.573Z,6.70
2022-09-15T15:12:34.833Z,3.90
2022-09-15T15:15:02.909Z,2.23
2022-09-15T15:17:45.247Z,3.67
2022-09-15T15:20:11.815Z,2.23
2022-09-15T15:22:39.345Z,2.30
2022-09-15T15:25:32.266Z,3.40
2022-09-15T15:28:00.242Z,2.40
2022-09-15T15:30:30.625Z,4.50
2022-09-15T15:33:02.956Z,2.47
2022-09-15T15:35:30.666Z,4.20
2022-09-15T15:38:14.365Z,1.63
2022-09-15T15:40:41.949Z,1.63
2022-09-15T15:43:21.997Z,3.20
2022-09-15T15:45:51.545Z,2.13
2022-09-15T15:48:18.286Z,1.97
2022-09-15T15:50:44.966Z,1.93
2022-09-15T15:53:11.596Z,3.83
2022-09-15T15:55:43.085Z,2.30
2022-09-15T15:58:12.148Z,2.53
2022-09-15T16:00:50.949Z,2.10
2022-09-15T16:03:20.224Z,3.17
2022-09-15T16:05:58.678Z,1.90
2022-09-15T16:08:31.612Z,2.20
2022-09-15T16:11:01.329Z,2.33
2022-09-15T16:13:29.127Z,2.10
2022-09-15T16:15:57.841Z,3.33
2022-09-15T16:18:24.796Z,2.30
2022-09-15T16:20:52.080Z,4.23
2022-09-15T16:23:21.016Z,2.07
2022-09-15T16:26:07.417Z,2.80
2022-09-15T16:28:34.035Z,2.50
2022-09-15T16:31:00.767Z,2.33
2022-09-15T16:33:27.416Z,4.33
2022-09-15T16:35:57.477Z,2.67
2022-09-15T16:38:25.959Z,2.73
2022-09-15T16:40:52.698Z,2.70
2022-09-15T16:43:22.043Z,2.60
2022-09-15T16:45:49.998Z,2.70
2022-09-15T16:48:17.150Z,2.57
2022-09-15T16:50:55.825Z,4.10
2022-09-15T16:53:32.636Z,4.53
2022-09-15T16:55:59.336Z,2.90
2022-09-15T16:58:26.314Z,3.73
2022-09-15T17:00:53.508Z,2.67
2022-09-15T17:03:22.865Z,4.07
2022-09-15T17:05:55.394Z,3.90
2022-09-15T17:08:24.820Z,2.80
2022-09-15T17:10:53.144Z,3.20
2022-09-15T17:13:26.405Z,3.60
2022-09-15T17:15:56.318Z,3.07
2022-09-15T17:18:23.914Z,4.20
2022-09-15T17:20:51.431Z,2.70
2022-09-15T17:23:31.221Z,3.80
2022-09-15T17:26:01.090Z,3.00
2022-09-15T17:28:31.622Z,2.90
2022-09-15T17:31:01.098Z,3.37
2022-09-15T17:33:31.022Z,3.13
2022-09-15T17:35:58.866Z,2.77
2022-09-15T17:38:26.224Z,2.57
2022-09-15T17:40:55.187Z,2.77
2022-09-15T17:43:25.164Z,5.60
2022-09-15T17:45:52.497Z,4.57
2022-09-15T17:48:19.727Z,3.53
2022-09-15T17:50:48.629Z,3.23
2022-09-15T17:53:23.506Z,3.53
2022-09-15T17:55:50.975Z,5.33
2022-09-15T17:58:18.225Z,3.43
2022-09-15T18:00:45.839Z,3.90
2022-09-15T18:03:27.893Z,4.43
2022-09-15T18:05:56.467Z,3.17
2022-09-15T18:08:23.218Z,6.70
2022-09-15T18:10:49.883Z,5.60
2022-09-15T18:13:19.655Z,3.00
2022-09-15T18:15:46.720Z,4.03
2022-09-15T18:18:20.055Z,5.30
2022-09-15T18:20:47.015Z,3.47
2022-09-15T18:23:16.176Z,3.70
2022-09-15T18:25:43.958Z,3.53
2022-09-15T18:28:10.751Z,3.73
2022-09-15T18:30:42.189Z,3.10
2022-09-15T18:33:14.760Z,3.70
2022-09-15T18:35:41.863Z,3.60
2022-09-15T18:38:08.932Z,7.07
2022-09-15T18:40:36.164Z,3.97
2022-09-15T18:43:02.979Z,4.20
2022-09-15T18:45:29.612Z,4.13
2022-09-15T18:47:56.278Z,5.13
2022-09-15T18:50:24.311Z,3.70
2022-09-15T18:52:51.075Z,5.80
2022-09-15T18:55:20.233Z,3.80
2022-09-15T18:57:47.308Z,3.50
2022-09-15T19:00:25.358Z,4.23
2022-09-15T19:03:00.259Z,7.27
2022-09-15T19:05:27.922Z,6.43
2022-09-15T19:07:55.473Z,3.97
2022-09-15T19:10:23.051Z,4.07
2022-09-15T19:12:49.852Z,4.60
2022-09-15T19:15:17.023Z,4.77
2022-09-15T19:17:44.236Z,4.23
2022-09-15T19:20:14.925Z,6.33
2022-09-15T19:22:42.399Z,5.50
2022-09-15T19:25:10.956Z,7.83
2022-09-15T19:27:38.602Z,7.77
2022-09-15T19:30:06.571Z,3.80
2022-09-15T19:32:33.951Z,4.70
2022-09-15T19:35:00.568Z,4.57
2022-09-15T19:37:27.298Z,4.87
2022-09-15T19:39:54.704Z,4.80
2022-09-15T19:42:21.505Z,5.60
2022-09-15T19:44:49.331Z,6.00
2022-09-15T19:47:16.308Z,4.17
2022-09-15T19:49:42.874Z,6.40
2022-09-15T19:52:09.505Z,4.07
2022-09-15T19:54:36.257Z,4.37
2022-09-15T19:57:03.050Z,4.83
2022-09-15T19:59:31.511Z,5.70
2022-09-15T20:01:59.074Z,4.87
2022-09-15T20:04:26.065Z,4.00
2022-09-15T20:06:52.735Z,4.43
2022-09-15T20:09:19.339Z,5.43
2022-09-15T20:11:46.066Z,4.50
2022-09-15T20:14:13.368Z,4.97
2022-09-15T20:16:40.084Z,7.97
2022-09-15T20:19:06.756Z,6.90
2022-09-15T20:21:49.691Z,5.30
2022-09-15T20:24:19.030Z,6.33
2022-09-15T20:26:45.681Z,4.80
2022-09-15T20:29:13.196Z,5.60
2022-09-15T20:31:40.143Z,4.70
2022-09-15T20:34:06.766Z,9.63
2022-09-15T20:36:36.422Z,6.60
2022-09-15T20:39:05.726Z,5.93
2022-09-15T20:41:32.359Z,9.93
2022-09-15T20:44:00.135Z,4.40
2022-09-15T20:46:28.899Z,7.47
2022-09-15T20:48:55.556Z,6.10
2022-09-15T20:51:24.336Z,4.63
2022-09-15T20:53:53.878Z,8.63
2022-09-15T20:56:24.760Z,7.87
2022-09-15T20:58:53.559Z,4.60
2022-09-15T21:01:28.178Z,4.57
2022-09-15T21:03:55.606Z,4.63
2022-09-15T21:06:25.107Z,8.13
2022-09-15T21:08:53.067Z,4.90
2022-09-15T21:11:20.747Z,7.30
2022-09-15T21:13:48.065Z,7.27
2022-09-15T21:16:17.111Z,5.00
2022-09-15T21:18:45.048Z,4.40
2022-09-15T21:21:14.444Z,4.80
2022-09-15T21:23:48.980Z,9.07
2022-09-15T21:26:21.247Z,5.80
2022-09-15T21:28:48.761Z,6.10
2022-09-15T21:31:24.266Z,4.80
2022-09-15T21:33:52.173Z,6.70
2022-09-15T21:36:24.689Z,5.30
2022-09-15T21:38:53.893Z,5.60
2022-09-15T21:41:26.593Z,5.77
2022-09-15T21:43:55.380Z,7.67
2022-09-15T21:46:26.527Z,6.00
2022-09-15T21:48:55.124Z,5.37
2022-09-15T21:51:24.861Z,5.97
2022-09-15T21:53:52.907Z,6.60
2022-09-15T21:56:19.931Z,8.10
2022-09-15T21:58:46.614Z,6.03
2022-09-15T22:01:18.852Z,5.83
2022-09-15T22:03:57.336Z,6.93
2022-09-15T22:06:27.815Z,5.27
2022-09-15T22:08:55.146Z,5.43
2022-09-15T22:11:22.762Z,6.80
2022-09-15T22:13:50.382Z,7.37
2022-09-15T22:16:19.977Z,6.37
2022-09-15T22:18:47.468Z,9.50
2022-09-15T22:21:18.117Z,7.90
2022-09-15T22:23:46.188Z,7.27
2022-09-15T22:26:16.188Z,7.10
2022-09-15T22:28:43.297Z,8.67
2022-09-15T22:31:12.081Z,5.73
2022-09-15T22:33:42.357Z,6.53
2022-09-15T22:36:13.518Z,5.70
2022-09-15T22:38:40.436Z,5.93
2022-09-15T22:41:09.349Z,5.73
2022-09-15T22:43:36.854Z,10.13
2022-09-15T22:46:03.871Z,7.40
2022-09-15T22:48:30.831Z,7.20
2022-09-15T22:50:57.959Z,7.77
2022-09-15T22:53:25.404Z,6.77
2022-09-15T22:55:53.487Z,8.53
2022-09-15T22:58:20.098Z,7.67
2022-09-15T23:00:46.832Z,8.37
2022-09-15T23:03:13.557Z,10.53
2022-09-15T23:05:40.225Z,8.97
2022-09-15T23:08:06.840Z,9.53
2022-09-15T23:10:33.583Z,9.27
2022-09-15T23:13:00.469Z,11.93
2022-09-15T23:15:27.925Z,9.33
2022-09-15T23:17:54.520Z,13.30
2022-09-15T23:20:21.137Z,8.37
2022-09-15T23:22:47.714Z,13.57
2022-09-15T23:25:14.418Z,8.83
2022-09-15T23:27:41.054Z,16.23
2022-09-15T23:30:08.359Z,10.83
2022-09-15T23:32:34.944Z,10.27
2022-09-15T23:35:01.528Z,11.40
2022-09-15T23:37:28.268Z,10.70
2022-09-15T23:39:54.856Z,10.13
2022-09-15T23:42:21.488Z,9.80
2022-09-15T23:44:48.072Z,12.30
2022-09-15T23:47:14.692Z,9.67
2022-09-15T23:49:41.275Z,9.63
2022-09-15T23:52:07.864Z,11.57
2022-09-15T23:54:34.449Z,10.63
2022-09-15T23:57:01.041Z,11.70
2022-09-15T23:59:27.759Z,12.23
